sensor_id;sensor_type;location;lat;lon;timestamp;pressure;altitude;pressure_sealevel;temperature;humidity
61128;BME280;47013;42.664;23.242;2023-09-19T00:00:42;94385.63;;;15.93;83.58
61128;BME280;47013;42.664;23.242;2023-09-19T00:03:08;94380.66;;;15.88;83.95
61128;BME280;47013;42.664;23.242;2023-09-19T00:05:35;94383.91;;;15.83;84.29
61128;BME280;47013;42.664;23.242;2023-09-19T00:08:01;94391.00;;;15.80;84.77
61128;BME280;47013;42.664;23.242;2023-09-19T00:10:30;94384.34;;;15.81;84.78
61128;BME280;47013;42.664;23.242;2023-09-19T00:12:59;94390.25;;;15.80;84.99
61128;BME280;47013;42.664;23.242;2023-09-19T00:15:28;94383.66;;;15.77;84.83
61128;BME280;47013;42.664;23.242;2023-09-19T00:17:56;94380.22;;;15.73;85.13
61128;BME280;47013;42.664;23.242;2023-09-19T00:20:23;94378.78;;;15.69;85.51
61128;BME280;47013;42.664;23.242;2023-09-19T00:22:50;94377.34;;;15.64;86.09
61128;BME280;47013;42.664;23.242;2023-09-19T00:25:17;94375.88;;;15.59;86.48
61128;BME280;47013;42.664;23.242;2023-09-19T00:27:43;94373.97;;;15.56;86.96
61128;BME280;47013;42.664;23.242;2023-09-19T00:30:11;94368.16;;;15.54;86.98
61128;BME280;47013;42.664;23.242;2023-09-19T00:32:45;94353.31;;;15.55;87.31
61128;BME280;47013;42.664;23.242;2023-09-19T00:35:13;94354.06;;;15.56;87.02
61128;BME280;47013;42.664;23.242;2023-09-19T00:37:40;94358.44;;;15.53;86.99
61128;BME280;47013;42.664;23.242;2023-09-19T00:40:07;94355.84;;;15.46;87.50
61128;BME280;47013;42.664;23.242;2023-09-19T00:42:40;94361.06;;;15.41;87.97
61128;BME280;47013;42.664;23.242;2023-09-19T00:45:07;94365.50;;;15.34;88.25
61128;BME280;47013;42.664;23.242;2023-09-19T00:47:35;94363.53;;;15.35;88.34
61128;BME280;47013;42.664;23.242;2023-09-19T00:50:00;94361.66;;;15.32;88.53
61128;BME280;47013;42.664;23.242;2023-09-19T00:52:28;94366.34;;;15.31;88.17
61128;BME280;47013;42.664;23.242;2023-09-19T00:54:54;94358.56;;;15.30;88.24
61128;BME280;47013;42.664;23.242;2023-09-19T00:57:19;94359.78;;;15.29;88.20
61128;BME280;47013;42.664;23.242;2023-09-19T00:59:48;94366.44;;;15.28;88.06
61128;BME280;47013;42.664;23.242;2023-09-19T01:02:16;94357.47;;;15.27;88.08
61128;BME280;47013;42.664;23.242;2023-09-19T01:04:41;94362.94;;;15.27;88.01
61128;BME280;47013;42.664;23.242;2023-09-19T01:07:08;94356.28;;;15.28;87.96
61128;BME280;47013;42.664;23.242;2023-09-19T01:09:34;94359.00;;;15.28;87.97
61128;BME280;47013;42.664;23.242;2023-09-19T01:12:02;94361.75;;;15.28;87.96
61128;BME280;47013;42.664;23.242;2023-09-19T01:14:44;94355.22;;;15.22;88.42
61128;BME280;47013;42.664;23.242;2023-09-19T01:17:21;94362.06;;;15.14;88.99
61128;BME280;47013;42.664;23.242;2023-09-19T01:31:11;94361.44;;;15.07;90.18
61128;BME280;47013;42.664;23.242;2023-09-19T01:33:56;94366.13;;;15.06;89.68
61128;BME280;47013;42.664;23.242;2023-09-19T01:36:33;94363.41;;;15.06;89.61
61128;BME280;47013;42.664;23.242;2023-09-19T01:39:02;94365.34;;;15.05;89.67
61128;BME280;47013;42.664;23.242;2023-09-19T01:44:30;94363.56;;;14.99;90.04
61128;BME280;47013;42.664;23.242;2023-09-19T01:47:00;94366.34;;;14.95;90.07
61128;BME280;47013;42.664;23.242;2023-09-19T01:49:37;94360.97;;;14.92;90.13
61128;BME280;47013;42.664;23.242;2023-09-19T01:52:12;94366.94;;;14.87;90.26
61128;BME280;47013;42.664;23.242;2023-09-19T01:54:52;94363.91;;;14.81;91.20
61128;BME280;47013;42.664;23.242;2023-09-19T01:57:29;94362.47;;;14.77;91.49
61128;BME280;47013;42.664;23.242;2023-09-19T02:00:01;94360.16;;;14.75;91.41
61128;BME280;47013;42.664;23.242;2023-09-19T02:02:34;94362.47;;;14.77;91.22
61128;BME280;47013;42.664;23.242;2023-09-19T02:05:01;94368.44;;;14.71;91.42
61128;BME280;47013;42.664;23.242;2023-09-19T02:07:26;94366.94;;;14.67;91.83
61128;BME280;47013;42.664;23.242;2023-09-19T02:09:52;94363.88;;;14.65;91.95
61128;BME280;47013;42.664;23.242;2023-09-19T02:12:17;94360.38;;;14.64;91.80
61128;BME280;47013;42.664;23.242;2023-09-19T02:14:43;94363.09;;;14.64;91.85
61128;BME280;47013;42.664;23.242;2023-09-19T02:17:08;94362.25;;;14.67;91.87
61128;BME280;47013;42.664;23.242;2023-09-19T02:19:36;94357.56;;;14.68;91.87
61128;BME280;47013;42.664;23.242;2023-09-19T02:22:04;94355.13;;;14.73;91.59
61128;BME280;47013;42.664;23.242;2023-09-19T02:24:38;94355.47;;;14.75;91.43
61128;BME280;47013;42.664;23.242;2023-09-19T02:27:04;94356.16;;;14.80;90.99
61128;BME280;47013;42.664;23.242;2023-09-19T02:29:30;94355.72;;;14.81;90.61
61128;BME280;47013;42.664;23.242;2023-09-19T02:31:55;94360.09;;;14.79;90.46
61128;BME280;47013;42.664;23.242;2023-09-19T02:34:22;94357.78;;;14.77;90.47
61128;BME280;47013;42.664;23.242;2023-09-19T02:36:47;94351.97;;;14.75;90.70
61128;BME280;47013;42.664;23.242;2023-09-19T02:39:12;94347.38;;;14.72;90.64
61128;BME280;47013;42.664;23.242;2023-09-19T02:41:38;94342.69;;;14.72;91.02
61128;BME280;47013;42.664;23.242;2023-09-19T02:44:03;94338.81;;;14.70;90.59
61128;BME280;47013;42.664;23.242;2023-09-19T02:46:33;94334.97;;;14.67;91.05
61128;BME280;47013;42.664;23.242;2023-09-19T02:48:58;94333.84;;;14.65;90.93
61128;BME280;47013;42.664;23.242;2023-09-19T02:51:24;94335.81;;;14.64;91.00
61128;BME280;47013;42.664;23.242;2023-09-19T02:53:50;94332.81;;;14.59;91.21
61128;BME280;47013;42.664;23.242;2023-09-19T02:56:18;94327.00;;;14.57;91.44
61128;BME280;47013;42.664;23.242;2023-09-19T02:58:43;94332.38;;;14.40;92.18
61128;BME280;47013;42.664;23.242;2023-09-19T03:01:10;94329.97;;;14.42;92.05
61128;BME280;47013;42.664;23.242;2023-09-19T03:03:38;94316.34;;;14.42;91.95
61128;BME280;47013;42.664;23.242;2023-09-19T03:06:05;94312.41;;;14.43;92.08
61128;BME280;47013;42.664;23.242;2023-09-19T03:08:34;94312.06;;;14.41;92.17
61128;BME280;47013;42.664;23.242;2023-09-19T03:11:03;94315.66;;;14.38;92.63
61128;BME280;47013;42.664;23.242;2023-09-19T03:13:33;94309.44;;;14.38;92.76
61128;BME280;47013;42.664;23.242;2023-09-19T03:16:01;94317.69;;;14.34;92.83
61128;BME280;47013;42.664;23.242;2023-09-19T03:18:30;94318.47;;;14.35;93.07
61128;BME280;47013;42.664;23.242;2023-09-19T03:20:57;94321.94;;;14.35;93.20
61128;BME280;47013;42.664;23.242;2023-09-19T03:23:25;94322.72;;;14.36;92.81
61128;BME280;47013;42.664;23.242;2023-09-19T03:25:51;94320.34;;;14.38;92.56
61128;BME280;47013;42.664;23.242;2023-09-19T03:28:17;94314.47;;;14.39;94.50
61128;BME280;47013;42.664;23.242;2023-09-19T03:30:43;94310.88;;;14.42;92.06
61128;BME280;47013;42.664;23.242;2023-09-19T03:33:09;94310.88;;;14.42;92.06
61128;BME280;47013;42.664;23.242;2023-09-19T03:35:37;94322.66;;;14.39;92.17
61128;BME280;47013;42.664;23.242;2023-09-19T03:38:03;94320.75;;;14.36;92.34
61128;BME280;47013;42.664;23.242;2023-09-19T03:40:29;94325.09;;;14.34;92.45
61128;BME280;47013;42.664;23.242;2023-09-19T03:42:55;94332.53;;;14.33;92.87
61128;BME280;47013;42.664;23.242;2023-09-19T03:45:20;94331.81;;;14.29;93.29
61128;BME280;47013;42.664;23.242;2023-09-19T03:47:46;94329.06;;;14.29;93.29
61128;BME280;47013;42.664;23.242;2023-09-19T03:50:15;94334.94;;;14.28;93.04
61128;BME280;47013;42.664;23.242;2023-09-19T03:52:45;94336.47;;;14.29;92.75
61128;BME280;47013;42.664;23.242;2023-09-19T03:55:11;94332.63;;;14.26;92.76
61128;BME280;47013;42.664;23.242;2023-09-19T03:57:37;94333.41;;;14.27;92.70
61128;BME280;47013;42.664;23.242;2023-09-19T04:00:05;94336.47;;;14.29;92.75
61128;BME280;47013;42.664;23.242;2023-09-19T04:02:36;94338.88;;;14.27;92.73
61128;BME280;47013;42.664;23.242;2023-09-19T04:05:03;94343.56;;;14.26;92.74
61128;BME280;47013;42.664;23.242;2023-09-19T04:07:28;94346.78;;;14.21;93.44
61128;BME280;47013;42.664;23.242;2023-09-19T04:09:54;94347.25;;;14.16;93.70
61128;BME280;47013;42.664;23.242;2023-09-19T04:12:20;94355.16;;;14.10;94.23
61128;BME280;47013;42.664;23.242;2023-09-19T04:14:45;94358.28;;;14.09;94.77
61128;BME280;47013;42.664;23.242;2023-09-19T04:17:11;94356.69;;;14.11;95.13
61128;BME280;47013;42.664;23.242;2023-09-19T04:19:36;94346.81;;;13.98;95.74
61128;BME280;47013;42.664;23.242;2023-09-19T04:22:02;94350.75;;;13.93;96.35
61128;BME280;47013;42.664;23.242;2023-09-19T04:24:29;94340.94;;;13.99;96.26
61128;BME280;47013;42.664;23.242;2023-09-19T04:26:54;94339.66;;;14.04;96.06
61128;BME280;47013;42.664;23.242;2023-09-19T04:29:19;94341.50;;;14.10;95.22
61128;BME280;47013;42.664;23.242;2023-09-19T04:31:45;94341.03;;;14.15;95.88
61128;BME280;47013;42.664;23.242;2023-09-19T04:34:11;94328.44;;;14.22;95.42
61128;BME280;47013;42.664;23.242;2023-09-19T04:36:43;94334.19;;;14.27;95.75
61128;BME280;47013;42.664;23.242;2023-09-19T04:39:08;94330.25;;;14.28;96.10
61128;BME280;47013;42.664;23.242;2023-09-19T04:41:35;94338.03;;;14.10;96.71
61128;BME280;47013;42.664;23.242;2023-09-19T04:44:04;94328.50;;;14.18;97.14
61128;BME280;47013;42.664;23.242;2023-09-19T04:46:30;94335.28;;;14.30;96.78
61128;BME280;47013;42.664;23.242;2023-09-19T04:48:55;94328.09;;;14.39;96.52
61128;BME280;47013;42.664;23.242;2023-09-19T04:51:21;94337.81;;;14.40;96.36
61128;BME280;47013;42.664;23.242;2023-09-19T04:53:46;94328.34;;;14.49;96.16
61128;BME280;47013;42.664;23.242;2023-09-19T04:56:13;94324.63;;;14.59;95.84
61128;BME280;47013;42.664;23.242;2023-09-19T04:58:38;94330.63;;;14.70;95.69
61128;BME280;47013;42.664;23.242;2023-09-19T05:01:04;94324.50;;;14.82;95.52
61128;BME280;47013;42.664;23.242;2023-09-19T05:03:29;94330.44;;;14.97;95.49
61128;BME280;47013;42.664;23.242;2023-09-19T05:05:55;94320.31;;;14.97;95.12
61128;BME280;47013;42.664;23.242;2023-09-19T05:08:20;94327.81;;;15.10;93.82
61128;BME280;47013;42.664;23.242;2023-09-19T05:10:47;94329.53;;;15.20;92.62
61128;BME280;47013;42.664;23.242;2023-09-19T05:13:14;94334.41;;;15.28;92.21
61128;BME280;47013;42.664;23.242;2023-09-19T05:15:39;94336.22;;;15.35;91.81
61128;BME280;47013;42.664;23.242;2023-09-19T05:18:05;94336.56;;;15.37;91.43
61128;BME280;47013;42.664;23.242;2023-09-19T05:20:32;94328.28;;;15.41;91.60
61128;BME280;47013;42.664;23.242;2023-09-19T05:23:04;94326.84;;;15.52;91.06
61128;BME280;47013;42.664;23.242;2023-09-19T05:25:33;94332.66;;;15.71;90.41
61128;BME280;47013;42.664;23.242;2023-09-19T05:28:02;94326.16;;;15.81;89.41
61128;BME280;47013;42.664;23.242;2023-09-19T05:30:30;94331.59;;;15.97;88.17
61128;BME280;47013;42.664;23.242;2023-09-19T05:32:56;94324.31;;;16.07;87.51
61128;BME280;47013;42.664;23.242;2023-09-19T05:35:22;94324.88;;;16.14;86.66
61128;BME280;47013;42.664;23.242;2023-09-19T05:37:50;94322.03;;;16.05;86.46
61128;BME280;47013;42.664;23.242;2023-09-19T05:40:19;94315.13;;;15.84;87.33
61128;BME280;47013;42.664;23.242;2023-09-19T05:42:45;94313.31;;;15.94;87.26
61128;BME280;47013;42.664;23.242;2023-09-19T05:45:11;94322.44;;;16.04;86.89
61128;BME280;47013;42.664;23.242;2023-09-19T05:47:38;94314.97;;;16.20;86.40
61128;BME280;47013;42.664;23.242;2023-09-19T05:50:04;94311.84;;;16.35;85.83
61128;BME280;47013;42.664;23.242;2023-09-19T05:52:30;94313.41;;;16.48;85.37
61128;BME280;47013;42.664;23.242;2023-09-19T05:54:55;94321.66;;;16.61;84.19
61128;BME280;47013;42.664;23.242;2023-09-19T05:57:21;94313.50;;;16.74;83.80
61128;BME280;47013;42.664;23.242;2023-09-19T05:59:47;94314.72;;;16.86;83.32
61128;BME280;47013;42.664;23.242;2023-09-19T06:02:15;94313.53;;;16.99;81.88
61128;BME280;47013;42.664;23.242;2023-09-19T06:04:41;94310.03;;;17.12;81.62
61128;BME280;47013;42.664;23.242;2023-09-19T06:07:06;94314.88;;;17.20;81.99
61128;BME280;47013;42.664;23.242;2023-09-19T06:09:32;94306.75;;;17.17;83.99
61128;BME280;47013;42.664;23.242;2023-09-19T06:11:58;94299.72;;;17.28;80.85
61128;BME280;47013;42.664;23.242;2023-09-19T06:14:23;94310.78;;;17.37;80.33
61128;BME280;47013;42.664;23.242;2023-09-19T06:16:50;94303.22;;;17.42;79.77
61128;BME280;47013;42.664;23.242;2023-09-19T06:19:15;94298.06;;;17.44;79.25
61128;BME280;47013;42.664;23.242;2023-09-19T06:21:40;94299.84;;;17.37;79.48
61128;BME280;47013;42.664;23.242;2023-09-19T06:24:06;94289.75;;;17.34;79.80
61128;BME280;47013;42.664;23.242;2023-09-19T06:26:32;94284.47;;;17.40;80.03
61128;BME280;47013;42.664;23.242;2023-09-19T06:28:57;94293.47;;;17.28;79.81
61128;BME280;47013;42.664;23.242;2023-09-19T06:31:25;94291.81;;;17.43;79.71
61128;BME280;47013;42.664;23.242;2023-09-19T06:33:52;94295.22;;;17.60;79.07
61128;BME280;47013;42.664;23.242;2023-09-19T06:36:17;94291.91;;;17.78;78.08
61128;BME280;47013;42.664;23.242;2023-09-19T06:38:44;94299.00;;;17.88;77.58
61128;BME280;47013;42.664;23.242;2023-09-19T06:41:10;94295.50;;;17.87;76.83
61128;BME280;47013;42.664;23.242;2023-09-19T06:43:35;94297.13;;;17.97;76.60
61128;BME280;47013;42.664;23.242;2023-09-19T06:46:01;94294.34;;;18.10;75.70
61128;BME280;47013;42.664;23.242;2023-09-19T06:48:27;94301.31;;;18.24;75.62
61128;BME280;47013;42.664;23.242;2023-09-19T06:50:55;94298.44;;;18.27;75.65
61128;BME280;47013;42.664;23.242;2023-09-19T06:53:21;94311.06;;;18.47;75.80
61128;BME280;47013;42.664;23.242;2023-09-19T06:55:49;94311.31;;;18.62;74.37
61128;BME280;47013;42.664;23.242;2023-09-19T06:58:15;94305.16;;;18.70;73.73
61128;BME280;47013;42.664;23.242;2023-09-19T07:00:42;94303.03;;;18.74;73.09
61128;BME280;47013;42.664;23.242;2023-09-19T07:03:08;94309.03;;;18.82;71.96
61128;BME280;47013;42.664;23.242;2023-09-19T07:05:37;94310.56;;;18.83;72.66
61128;BME280;47013;42.664;23.242;2023-09-19T07:08:04;94310.22;;;18.59;73.48
61128;BME280;47013;42.664;23.242;2023-09-19T07:10:31;94308.25;;;18.60;73.02
61128;BME280;47013;42.664;23.242;2023-09-19T07:13:05;94308.44;;;18.43;72.88
61128;BME280;47013;42.664;23.242;2023-09-19T07:15:35;94310.81;;;18.32;74.25
61128;BME280;47013;42.664;23.242;2023-09-19T07:18:07;94311.13;;;18.34;74.26
61128;BME280;47013;42.664;23.242;2023-09-19T07:20:36;94312.53;;;18.39;73.92
61128;BME280;47013;42.664;23.242;2023-09-19T07:23:02;94320.28;;;18.53;73.80
61128;BME280;47013;42.664;23.242;2023-09-19T07:25:28;94317.50;;;18.66;73.77
61128;BME280;47013;42.664;23.242;2023-09-19T07:27:57;94315.13;;;18.77;72.81
61128;BME280;47013;42.664;23.242;2023-09-19T07:30:26;94309.34;;;18.84;72.57
61128;BME280;47013;42.664;23.242;2023-09-19T07:32:52;94312.59;;;18.92;72.44
61128;BME280;47013;42.664;23.242;2023-09-19T07:35:18;94310.03;;;18.97;71.81
61128;BME280;47013;42.664;23.242;2023-09-19T07:37:47;94308.81;;;18.98;71.95
61128;BME280;47013;42.664;23.242;2023-09-19T07:40:19;94307.50;;;19.12;71.01
61128;BME280;47013;42.664;23.242;2023-09-19T07:42:45;94315.34;;;19.23;70.53
61128;BME280;47013;42.664;23.242;2023-09-19T07:45:14;94319.81;;;19.29;70.42
61128;BME280;47013;42.664;23.242;2023-09-19T07:47:50;94310.91;;;19.16;70.86
61128;BME280;47013;42.664;23.242;2023-09-19T07:50:19;94307.69;;;19.18;70.80
61128;BME280;47013;42.664;23.242;2023-09-19T07:52:45;94311.53;;;19.20;71.12
61128;BME280;47013;42.664;23.242;2023-09-19T07:55:11;94318.91;;;19.32;70.53
61128;BME280;47013;42.664;23.242;2023-09-19T07:57:45;94324.00;;;19.43;70.24
61128;BME280;47013;42.664;23.242;2023-09-19T08:00:11;94320.28;;;19.37;69.94
61128;BME280;47013;42.664;23.242;2023-09-19T08:02:37;94313.75;;;19.43;70.31
61128;BME280;47013;42.664;23.242;2023-09-19T08:05:07;94305.19;;;19.41;69.54
61128;BME280;47013;42.664;23.242;2023-09-19T08:07:46;94299.84;;;19.47;69.06
61128;BME280;47013;42.664;23.242;2023-09-19T08:10:14;94298.41;;;19.64;69.01
61128;BME280;47013;42.664;23.242;2023-09-19T08:12:41;94303.03;;;19.86;68.01
61128;BME280;47013;42.664;23.242;2023-09-19T08:15:18;94299.53;;;19.94;67.50
61128;BME280;47013;42.664;23.242;2023-09-19T08:17:47;94290.69;;;20.09;67.33
61128;BME280;47013;42.664;23.242;2023-09-19T08:20:15;94289.91;;;20.17;67.06
61128;BME280;47013;42.664;23.242;2023-09-19T08:22:51;94285.78;;;20.22;66.75
61128;BME280;47013;42.664;23.242;2023-09-19T08:25:21;94286.56;;;20.31;65.83
61128;BME280;47013;42.664;23.242;2023-09-19T08:27:47;94287.63;;;20.34;65.21
61128;BME280;47013;42.664;23.242;2023-09-19T08:30:23;94304.75;;;20.29;65.25
61128;BME280;47013;42.664;23.242;2023-09-19T08:33:07;94299.88;;;20.42;65.67
61128;BME280;47013;42.664;23.242;2023-09-19T08:35:32;94307.84;;;20.58;65.13
61128;BME280;47013;42.664;23.242;2023-09-19T08:38:01;94307.34;;;20.69;64.24
61128;BME280;47013;42.664;23.242;2023-09-19T08:40:32;94298.19;;;20.72;64.45
61128;BME280;47013;42.664;23.242;2023-09-19T08:42:59;94293.38;;;20.91;65.28
61128;BME280;47013;42.664;23.242;2023-09-19T08:45:26;94295.78;;;21.07;63.53
61128;BME280;47013;42.664;23.242;2023-09-19T08:55:57;94281.50;;;21.18;62.44
61128;BME280;47013;42.664;23.242;2023-09-19T08:58:30;94280.91;;;21.14;62.25
61128;BME280;47013;42.664;23.242;2023-09-19T09:01:00;94288.69;;;21.25;62.48
61128;BME280;47013;42.664;23.242;2023-09-19T09:03:27;94292.34;;;21.31;62.39
61128;BME280;47013;42.664;23.242;2023-09-19T09:05:54;94283.84;;;21.53;61.70
61128;BME280;47013;42.664;23.242;2023-09-19T09:08:20;94284.63;;;21.77;60.79
61128;BME280;47013;42.664;23.242;2023-09-19T09:10:50;94279.91;;;21.92;59.95
61128;BME280;47013;42.664;23.242;2023-09-19T09:13:17;94277.69;;;21.82;59.89
61128;BME280;47013;42.664;23.242;2023-09-19T09:15:45;94274.63;;;21.79;60.16
61128;BME280;47013;42.664;23.242;2023-09-19T09:18:11;94271.06;;;21.88;60.41
61128;BME280;47013;42.664;23.242;2023-09-19T09:20:37;94266.81;;;22.02;58.95
61128;BME280;47013;42.664;23.242;2023-09-19T09:23:02;94261.25;;;22.11;58.84
61128;BME280;47013;42.664;23.242;2023-09-19T09:25:52;94250.97;;;22.26;58.41
61128;BME280;47013;42.664;23.242;2023-09-19T09:28:23;94254.53;;;22.27;57.58
61128;BME280;47013;42.664;23.242;2023-09-19T09:30:49;94254.69;;;22.23;58.30
61128;BME280;47013;42.664;23.242;2023-09-19T09:33:17;94252.59;;;22.18;57.90
61128;BME280;47013;42.664;23.242;2023-09-19T09:35:53;94244.69;;;22.26;58.35
61128;BME280;47013;42.664;23.242;2023-09-19T09:38:25;94238.91;;;22.38;58.50
61128;BME280;47013;42.664;23.242;2023-09-19T09:40:57;94235.97;;;22.42;57.58
61128;BME280;47013;42.664;23.242;2023-09-19T09:43:37;94236.28;;;22.59;56.68
61128;BME280;47013;42.664;23.242;2023-09-19T09:46:08;94227.13;;;22.53;56.20
61128;BME280;47013;42.664;23.242;2023-09-19T09:49:06;94232.06;;;22.63;56.52
61128;BME280;47013;42.664;23.242;2023-09-19T09:54:33;94240.28;;;22.73;55.68
61128;BME280;47013;42.664;23.242;2023-09-19T09:57:06;94232.47;;;22.71;56.20
61128;BME280;47013;42.664;23.242;2023-09-19T10:00:09;94221.00;;;22.78;56.13
61128;BME280;47013;42.664;23.242;2023-09-19T10:02:45;94226.19;;;22.85;56.37
61128;BME280;47013;42.664;23.242;2023-09-19T10:05:13;94221.22;;;22.89;56.60
61128;BME280;47013;42.664;23.242;2023-09-19T10:07:39;94229.97;;;22.73;55.98
61128;BME280;47013;42.664;23.242;2023-09-19T10:10:07;94227.22;;;22.73;56.12
61128;BME280;47013;42.664;23.242;2023-09-19T10:12:43;94223.16;;;22.83;56.04
61128;BME280;47013;42.664;23.242;2023-09-19T10:15:21;94215.47;;;22.78;55.95
61128;BME280;47013;42.664;23.242;2023-09-19T10:17:47;94223.50;;;22.76;56.53
61128;BME280;47013;42.664;23.242;2023-09-19T10:20:15;94229.69;;;22.56;56.55
61128;BME280;47013;42.664;23.242;2023-09-19T10:23:05;94219.13;;;22.70;56.50
61128;BME280;47013;42.664;23.242;2023-09-19T10:25:36;94223.72;;;22.87;56.20
61128;BME280;47013;42.664;23.242;2023-09-19T10:28:09;94219.81;;;22.94;56.17
61128;BME280;47013;42.664;23.242;2023-09-19T10:30:41;94215.88;;;23.01;55.71
61128;BME280;47013;42.664;23.242;2023-09-19T10:33:16;94223.31;;;23.09;55.84
61128;BME280;47013;42.664;23.242;2023-09-19T10:35:44;94222.34;;;23.12;55.58
61128;BME280;47013;42.664;23.242;2023-09-19T10:38:11;94230.16;;;23.14;55.84
61128;BME280;47013;42.664;23.242;2023-09-19T10:40:38;94223.19;;;23.04;55.27
61128;BME280;47013;42.664;23.242;2023-09-19T10:43:12;94215.56;;;23.13;55.12
61128;BME280;47013;42.664;23.242;2023-09-19T10:45:38;94206.41;;;23.22;55.01
61128;BME280;47013;42.664;23.242;2023-09-19T10:48:06;94206.19;;;23.25;55.03
61128;BME280;47013;42.664;23.242;2023-09-19T10:51:22;94204.28;;;23.17;54.58
61128;BME280;47013;42.664;23.242;2023-09-19T10:53:21;94198.66;;;23.26;54.88
61128;BME280;47013;42.664;23.242;2023-09-19T10:55:54;94198.75;;;23.32;54.57
61128;BME280;47013;42.664;23.242;2023-09-19T10:58:26;94198.00;;;23.31;54.10
61128;BME280;47013;42.664;23.242;2023-09-19T11:00:57;94197.28;;;23.36;53.94
61128;BME280;47013;42.664;23.242;2023-09-19T11:03:28;94198.94;;;23.28;54.66
61128;BME280;47013;42.664;23.242;2023-09-19T11:06:17;94191.59;;;23.25;55.03
61128;BME280;47013;42.664;23.242;2023-09-19T11:11:44;94195.13;;;23.25;54.43
61128;BME280;47013;42.664;23.242;2023-09-19T11:16:40;94189.47;;;23.00;55.04
61128;BME280;47013;42.664;23.242;2023-09-19T11:25:47;94182.75;;;23.21;55.20
61128;BME280;47013;42.664;23.242;2023-09-19T11:30:39;94179.59;;;23.48;53.39
61128;BME280;47013;42.664;23.242;2023-09-19T11:36:08;94164.25;;;23.68;52.83
61128;BME280;47013;42.664;23.242;2023-09-19T11:43:53;94150.41;;;23.68;52.46
61128;BME280;47013;42.664;23.242;2023-09-19T11:49:16;94144.06;;;23.62;52.84
61128;BME280;47013;42.664;23.242;2023-09-19T11:51:46;94143.50;;;23.78;52.57
61128;BME280;47013;42.664;23.242;2023-09-19T11:54:14;94144.13;;;23.88;52.74
61128;BME280;47013;42.664;23.242;2023-09-19T11:56:43;94139.72;;;24.01;52.32
61128;BME280;47013;42.664;23.242;2023-09-19T11:59:10;94141.13;;;23.91;52.23
61128;BME280;47013;42.664;23.242;2023-09-19T12:01:37;94136.69;;;23.99;52.55
61128;BME280;47013;42.664;23.242;2023-09-19T12:04:11;94136.25;;;24.06;52.65
61128;BME280;47013;42.664;23.242;2023-09-19T12:06:37;94134.09;;;24.16;52.15
61128;BME280;47013;42.664;23.242;2023-09-19T12:09:12;94127.56;;;24.19;51.59
61128;BME280;47013;42.664;23.242;2023-09-19T12:11:42;94124.44;;;24.32;51.41
61128;BME280;47013;42.664;23.242;2023-09-19T12:14:09;94117.13;;;24.60;50.53
61128;BME280;47013;42.664;23.242;2023-09-19T12:16:35;94111.31;;;24.95;50.42
61128;BME280;47013;42.664;23.242;2023-09-19T12:19:21;94117.81;;;25.24;49.22
61128;BME280;47013;42.664;23.242;2023-09-19T12:24:24;94093.13;;;25.80;47.46
61128;BME280;47013;42.664;23.242;2023-09-19T12:26:52;94094.41;;;25.96;47.65
61128;BME280;47013;42.664;23.242;2023-09-19T12:29:19;94094.69;;;26.14;46.74
61128;BME280;47013;42.664;23.242;2023-09-19T12:31:55;94079.28;;;26.30;46.33
61128;BME280;47013;42.664;23.242;2023-09-19T12:34:31;94084.91;;;26.53;45.65
61128;BME280;47013;42.664;23.242;2023-09-19T12:37:11;94080.09;;;26.64;45.38
61128;BME280;47013;42.664;23.242;2023-09-19T12:39:50;94084.66;;;26.73;45.37
61128;BME280;47013;42.664;23.242;2023-09-19T12:42:25;94078.03;;;26.82;44.41
61128;BME280;47013;42.664;23.242;2023-09-19T12:44:58;94081.06;;;26.95;44.31
61128;BME280;47013;42.664;23.242;2023-09-19T12:47:26;94082.31;;;27.16;44.45
61128;BME280;47013;42.664;23.242;2023-09-19T12:50:14;94082.28;;;27.27;43.74
61128;BME280;47013;42.664;23.242;2023-09-19T12:52:54;94083.28;;;27.36;42.64
61128;BME280;47013;42.664;23.242;2023-09-19T12:58:13;94076.22;;;27.29;42.01
61128;BME280;47013;42.664;23.242;2023-09-19T13:00:44;94075.94;;;27.32;42.47
61128;BME280;47013;42.664;23.242;2023-09-19T13:03:27;94068.53;;;27.52;41.73
61128;BME280;47013;42.664;23.242;2023-09-19T13:06:02;94068.47;;;27.74;41.31
61128;BME280;47013;42.664;23.242;2023-09-19T13:08:32;94064.78;;;28.02;40.72
61128;BME280;47013;42.664;23.242;2023-09-19T13:13:26;94059.59;;;28.17;40.02
61128;BME280;47013;42.664;23.242;2023-09-19T13:15:53;94059.38;;;28.15;40.14
61128;BME280;47013;42.664;23.242;2023-09-19T13:18:19;94053.22;;;28.22;40.47
61128;BME280;47013;42.664;23.242;2023-09-19T13:21:05;94052.78;;;28.12;40.17
61128;BME280;47013;42.664;23.242;2023-09-19T13:23:31;94048.25;;;27.62;40.94
61128;BME280;47013;42.664;23.242;2023-09-19T13:25:57;94046.47;;;27.65;41.02
61128;BME280;47013;42.664;23.242;2023-09-19T13:28:25;94045.44;;;27.74;41.85
61128;BME280;47013;42.664;23.242;2023-09-19T13:30:53;94037.47;;;27.89;41.51
61128;BME280;47013;42.664;23.242;2023-09-19T13:33:19;94042.47;;;28.02;41.30
61128;BME280;47013;42.664;23.242;2023-09-19T13:35:46;94041.91;;;28.09;41.17
61128;BME280;47013;42.664;23.242;2023-09-19T13:38:13;94037.69;;;27.97;41.09
61128;BME280;47013;42.664;23.242;2023-09-19T13:40:39;94048.75;;;27.67;42.06
61128;BME280;47013;42.664;23.242;2023-09-19T13:43:04;94046.03;;;27.50;42.67
61128;BME280;47013;42.664;23.242;2023-09-19T13:45:32;94045.50;;;27.46;42.70
61128;BME280;47013;42.664;23.242;2023-09-19T13:47:57;94042.25;;;27.42;42.90
61128;BME280;47013;42.664;23.242;2023-09-19T13:50:26;94036.22;;;27.26;43.00
61128;BME280;47013;42.664;23.242;2023-09-19T13:52:54;94040.03;;;27.29;43.43
61128;BME280;47013;42.664;23.242;2023-09-19T13:55:22;94032.19;;;27.27;43.23
61128;BME280;47013;42.664;23.242;2023-09-19T13:57:47;94037.56;;;27.03;43.55